Time;durP1;ratioP1;P1;durP2;ratioP2;P2;SDS_P1;SDS_P2;PMS_P1;PMS_P2;Temp;Humidity;BMP_temperature;BMP_pressure;BME280_temperature;BME280_humidity;BME280_pressure;Samples;Min_cycle;Max_cycle;Signal;HPM_P1;HPM_P2
2023/01/15 00:00:49;;;;;;;10.95;3.50;;;6.40;99.90;;;;;;5108370;28;20059;-68
2023/01/15 00:03:15;;;;;;;13.15;3.58;;;6.40;99.90;;;;;;5104785;28;20031;-68
2023/01/15 00:05:40;;;;;;;22.02;3.50;;;6.40;99.90;;;;;;5097365;28;20043;-68
2023/01/15 00:08:06;;;;;;;10.43;3.13;;;6.30;99.90;;;;;;5101502;28;20088;-68
2023/01/15 00:10:31;;;;;;;10.52;3.40;;;6.30;99.90;;;;;;5103044;28;20066;-68
2023/01/15 00:12:57;;;;;;;8.65;3.10;;;6.30;99.90;;;;;;5103539;28;20046;-68
2023/01/15 00:15:23;;;;;;;15.02;2.97;;;6.30;99.90;;;;;;5107856;28;20631;-68
2023/01/15 00:17:48;;;;;;;9.35;2.63;;;6.30;99.90;;;;;;5089846;28;20648;-68
2023/01/15 00:20:14;;;;;;;8.70;3.15;;;6.30;99.90;;;;;;5103301;28;20391;-68
2023/01/15 00:22:40;;;;;;;11.48;3.60;;;6.30;99.90;;;;;;5107688;28;20073;-68
2023/01/15 00:27:50;;;;;;;11.30;4.28;;;6.30;99.90;;;;;;5095813;28;20087;-68
2023/01/15 00:30:16;;;;;;;13.38;3.72;;;6.30;99.90;;;;;;5106720;28;20078;-68
2023/01/15 00:32:43;;;;;;;17.02;4.05;;;6.30;99.90;;;;;;5107597;28;20051;-68
2023/01/15 00:35:15;;;;;;;20.88;4.43;;;6.30;99.90;;;;;;5104259;28;20051;-68
2023/01/15 00:37:41;;;;;;;9.32;3.92;;;6.30;99.90;;;;;;5088091;28;20036;-68
2023/01/15 00:40:07;;;;;;;12.00;3.72;;;6.20;99.90;;;;;;5087466;28;20059;-67
2023/01/15 00:42:33;;;;;;;11.68;4.22;;;6.30;99.90;;;;;;5101592;28;20039;-68
2023/01/15 00:45:04;;;;;;;11.20;3.78;;;6.30;99.90;;;;;;5107368;28;20110;-68
2023/01/15 00:47:30;;;;;;;11.38;3.75;;;6.30;99.90;;;;;;5092746;28;20052;-68
2023/01/15 00:49:56;;;;;;;11.77;3.10;;;6.20;99.90;;;;;;5107517;28;20044;-68
2023/01/15 00:52:21;;;;;;;18.30;3.42;;;6.30;99.90;;;;;;5096487;28;20135;-68
2023/01/15 00:54:47;;;;;;;30.98;4.63;;;6.20;99.90;;;;;;5107056;28;20120;-67
2023/01/15 00:57:13;;;;;;;26.13;5.13;;;6.20;99.90;;;;;;5107084;28;20048;-68
2023/01/15 00:59:38;;;;;;;11.10;4.20;;;6.30;99.90;;;;;;5103880;28;20688;-68
2023/01/15 01:02:05;;;;;;;9.57;3.70;;;6.30;99.90;;;;;;5106837;28;20047;-68
2023/01/15 01:04:31;;;;;;;11.73;3.63;;;6.20;99.90;;;;;;5107756;28;20047;-68
2023/01/15 01:06:56;;;;;;;16.23;3.97;;;6.20;99.90;;;;;;5088769;28;20044;-68
2023/01/15 01:09:22;;;;;;;10.40;4.47;;;6.30;99.90;;;;;;5099590;28;20036;-68
2023/01/15 01:11:48;;;;;;;11.65;3.03;;;6.30;99.90;;;;;;5106475;28;20031;-68
2023/01/15 01:14:15;;;;;;;17.40;3.92;;;6.30;99.90;;;;;;5106979;28;20083;-68
2023/01/15 01:16:41;;;;;;;9.80;3.75;;;6.30;99.90;;;;;;5105746;28;20054;-68
2023/01/15 01:19:10;;;;;;;15.23;3.83;;;6.30;99.90;;;;;;5105293;28;20051;-68
2023/01/15 01:21:37;;;;;;;13.60;3.35;;;6.20;99.90;;;;;;5096044;28;20075;-68
2023/01/15 01:24:03;;;;;;;9.10;3.13;;;6.30;99.90;;;;;;5094864;28;20043;-68
2023/01/15 01:26:29;;;;;;;13.95;3.35;;;6.20;99.90;;;;;;5104579;28;20039;-68
2023/01/15 01:28:56;;;;;;;15.70;3.58;;;6.30;99.90;;;;;;5105778;28;20052;-68
2023/01/15 01:31:22;;;;;;;23.85;4.78;;;6.20;99.90;;;;;;5094153;28;20086;-68
2023/01/15 01:33:54;;;;;;;12.48;3.78;;;6.30;99.90;;;;;;5090200;28;20043;-69
2023/01/15 01:36:24;;;;;;;16.33;4.20;;;6.30;99.90;;;;;;5104384;28;20055;-68
2023/01/15 01:38:50;;;;;;;22.95;4.50;;;6.30;99.90;;;;;;5105636;28;20045;-68
2023/01/15 01:41:17;;;;;;;10.23;3.38;;;6.30;99.90;;;;;;5099713;28;20040;-68
2023/01/15 01:43:57;;;;;;;30.65;3.83;;;6.30;99.90;;;;;;5099049;28;20369;-68
2023/01/15 01:46:24;;;;;;;9.45;3.95;;;6.20;99.90;;;;;;5096707;28;20053;-68
2023/01/15 01:49:10;;;;;;;20.05;5.07;;;6.30;99.90;;;;;;5106524;28;20058;-68
2023/01/15 01:52:04;;;;;;;10.45;3.30;;;6.30;99.90;;;;;;5087923;28;20040;-68
2023/01/15 01:54:32;;;;;;;20.48;3.95;;;6.20;99.90;;;;;;5093034;28;20043;-68
2023/01/15 01:56:58;;;;;;;13.40;3.97;;;6.20;99.90;;;;;;5094508;28;20044;-68
2023/01/15 01:59:25;;;;;;;13.25;3.67;;;6.20;99.90;;;;;;5091328;28;20048;-68
2023/01/15 02:01:51;;;;;;;12.52;3.92;;;6.20;99.90;;;;;;5098932;28;20039;-68
2023/01/15 02:04:19;;;;;;;11.70;3.78;;;6.20;99.90;;;;;;5105998;28;20115;-68
2023/01/15 02:06:45;;;;;;;27.30;5.07;;;6.20;99.90;;;;;;5100240;28;20116;-68
2023/01/15 02:09:11;;;;;;;17.70;3.95;;;6.20;99.90;;;;;;5076684;28;20048;-68
2023/01/15 02:11:37;;;;;;;11.05;3.35;;;6.10;99.90;;;;;;5094336;28;20627;-68
2023/01/15 02:14:24;;;;;;;12.95;3.00;;;6.20;99.90;;;;;;5105552;28;20044;-68
2023/01/15 02:17:03;;;;;;;21.30;4.85;;;6.20;99.90;;;;;;5103211;28;20035;-68
2023/01/15 02:19:56;;;;;;;16.30;3.20;;;6.10;99.90;;;;;;5099813;28;20075;-68
2023/01/15 02:22:50;;;;;;;17.48;4.05;;;6.10;99.90;;;;;;5099569;28;20043;-68
2023/01/15 02:25:54;;;;;;;15.02;3.88;;;6.10;99.90;;;;;;5105352;28;20036;-68
2023/01/15 02:28:43;;;;;;;15.00;2.92;;;6.10;99.90;;;;;;5049345;28;20048;-68
2023/01/15 02:31:20;;;;;;;12.40;4.13;;;6.10;99.90;;;;;;5086053;28;20126;-68
2023/01/15 02:34:13;;;;;;;13.32;4.43;;;6.10;99.90;;;;;;5099899;28;20063;-68
2023/01/15 02:36:45;;;;;;;24.55;5.50;;;6.10;99.90;;;;;;5099652;28;20040;-68
2023/01/15 02:39:14;;;;;;;19.83;3.85;;;6.10;99.90;;;;;;5095710;28;20552;-68
2023/01/15 02:41:45;;;;;;;14.15;3.75;;;6.10;99.90;;;;;;5105434;28;20544;-68
2023/01/15 02:44:15;;;;;;;15.82;4.10;;;6.10;99.90;;;;;;5089725;28;20051;-68
2023/01/15 02:46:43;;;;;;;16.02;3.72;;;6.10;99.90;;;;;;5089689;28;20040;-68
2023/01/15 02:49:13;;;;;;;15.35;4.40;;;6.10;99.90;;;;;;5097277;28;20079;-68
2023/01/15 02:51:45;;;;;;;16.40;2.70;;;6.10;99.90;;;;;;5106813;28;20089;-68
2023/01/15 02:54:14;;;;;;;12.02;4.03;;;6.10;99.90;;;;;;5096974;28;20044;-68
2023/01/15 02:56:43;;;;;;;20.60;4.72;;;6.10;99.90;;;;;;5096812;28;20063;-68
2023/01/15 02:59:21;;;;;;;;;;;6.10;99.90;;;;;;5096071;28;20067;-69
2023/01/15 03:01:52;;;;;;;11.35;3.95;;;6.10;99.90;;;;;;5098194;28;20011;-68
2023/01/15 03:04:29;;;;;;;19.50;4.85;;;6.00;99.90;;;;;;5099881;28;20039;-68
2023/01/15 03:06:55;;;;;;;9.60;4.30;;;6.10;99.90;;;;;;5103519;28;20047;-68
2023/01/15 03:09:21;;;;;;;13.52;4.00;;;6.00;99.90;;;;;;5106123;28;20043;-68
2023/01/15 03:12:02;;;;;;;14.52;4.32;;;6.10;99.90;;;;;;5108729;28;20059;-69
2023/01/15 03:14:39;;;;;;;15.15;3.88;;;6.00;99.90;;;;;;5098575;28;20520;-68
2023/01/15 03:17:19;;;;;;;15.63;3.40;;;6.10;99.90;;;;;;5093244;28;20043;-68
2023/01/15 03:20:19;;;;;;;22.42;4.93;;;6.10;99.90;;;;;;5107680;27;20719;-68
2023/01/15 03:22:50;;;;;;;15.82;3.80;;;6.10;99.90;;;;;;5102356;28;20440;-68
2023/01/15 03:25:23;;;;;;;20.77;4.80;;;6.10;99.90;;;;;;5100923;28;20051;-68
2023/01/15 03:27:51;;;;;;;25.35;4.55;;;6.10;99.90;;;;;;5089213;28;20089;-68
2023/01/15 03:30:20;;;;;;;13.55;3.35;;;6.00;99.90;;;;;;5103283;28;20130;-68
2023/01/15 03:32:46;;;;;;;19.48;5.40;;;6.10;99.90;;;;;;5108738;28;20127;-68
2023/01/15 03:35:57;;;;;;;14.55;4.63;;;6.10;99.90;;;;;;5106332;28;20574;-68
2023/01/15 03:38:35;;;;;;;18.08;4.40;;;6.00;99.90;;;;;;5090247;28;20325;-68
2023/01/15 03:41:25;;;;;;;18.70;5.00;;;6.00;99.90;;;;;;5105729;28;20100;-68
2023/01/15 03:44:12;;;;;;;11.50;3.35;;;6.00;99.90;;;;;;5102649;28;20415;-68
2023/01/15 03:47:01;;;;;;;14.82;4.05;;;6.00;99.90;;;;;;5097541;28;20157;-69
2023/01/15 03:49:54;;;;;;;23.55;3.63;;;6.00;99.90;;;;;;5108774;28;20032;-68
2023/01/15 03:52:45;;;;;;;14.02;3.53;;;6.00;99.90;;;;;;5099312;28;20143;-68
2023/01/15 03:55:18;;;;;;;15.05;4.18;;;6.00;99.90;;;;;;5087279;28;22438;-68
2023/01/15 03:58:10;;;;;;;17.88;4.25;;;6.00;99.90;;;;;;5095042;28;20051;-68
2023/01/15 04:00:45;;;;;;;15.00;4.22;;;6.00;99.90;;;;;;5099918;28;20107;-69
2023/01/15 04:03:13;;;;;;;12.88;3.53;;;5.90;99.90;;;;;;5108349;27;20069;-68
2023/01/15 04:05:39;;;;;;;12.80;3.67;;;6.00;99.90;;;;;;5106841;28;20475;-68
2023/01/15 04:08:06;;;;;;;12.77;3.78;;;5.90;99.90;;;;;;5090552;28;20062;-68
2023/01/15 04:10:33;;;;;;;15.35;4.45;;;6.00;99.90;;;;;;5103840;28;20038;-68
2023/01/15 04:12:59;;;;;;;16.60;3.90;;;6.00;99.90;;;;;;5094694;28;20055;-68
2023/01/15 04:15:24;;;;;;;11.35;3.47;;;5.90;99.90;;;;;;5096881;28;20571;-68
2023/01/15 04:17:50;;;;;;;14.15;3.30;;;5.90;99.90;;;;;;5082820;28;20075;-68
2023/01/15 04:20:16;;;;;;;16.40;4.65;;;5.90;99.90;;;;;;5123431;27;20047;-68
2023/01/15 04:22:41;;;;;;;19.23;4.05;;;5.90;99.90;;;;;;5099479;28;20044;-68
2023/01/15 04:25:08;;;;;;;26.00;4.75;;;5.90;99.90;;;;;;5108898;28;20095;-68
2023/01/15 04:27:33;;;;;;;18.60;4.00;;;5.80;99.90;;;;;;5103632;28;20104;-68
2023/01/15 04:29:59;;;;;;;18.88;4.30;;;5.90;99.90;;;;;;5102779;28;20055;-68
2023/01/15 04:32:25;;;;;;;14.70;4.28;;;5.90;99.90;;;;;;5102923;28;20892;-68
2023/01/15 04:34:51;;;;;;;12.75;4.25;;;5.90;99.90;;;;;;5105941;28;20074;-68
2023/01/15 04:37:16;;;;;;;10.35;4.38;;;5.80;99.90;;;;;;5106416;28;20047;-68
2023/01/15 04:39:42;;;;;;;12.82;3.38;;;5.80;99.90;;;;;;5107637;28;20051;-68
2023/01/15 04:44:57;;;;;;;19.98;4.75;;;5.90;99.90;;;;;;5096646;28;20052;-68
2023/01/15 04:47:23;;;;;;;14.63;4.28;;;5.80;99.90;;;;;;5108048;28;20216;-68
2023/01/15 04:49:49;;;;;;;19.73;5.30;;;5.80;99.90;;;;;;5097865;28;20055;-68
2023/01/15 04:52:15;;;;;;;19.65;4.97;;;5.80;99.90;;;;;;5094701;28;20063;-68
2023/01/15 04:54:40;;;;;;;20.95;4.32;;;5.80;99.90;;;;;;5107858;28;20412;-68
2023/01/15 04:57:06;;;;;;;16.10;4.10;;;5.80;99.90;;;;;;5108550;28;20046;-68
2023/01/15 04:59:32;;;;;;;17.27;4.05;;;5.80;99.90;;;;;;5103381;28;20044;-68
2023/01/15 05:01:58;;;;;;;13.10;3.47;;;5.80;99.90;;;;;;5094686;28;20545;-68
2023/01/15 05:04:23;;;;;;;8.63;3.70;;;5.80;99.90;;;;;;5103783;28;20153;-68
2023/01/15 05:06:49;;;;;;;17.05;4.10;;;5.80;99.90;;;;;;5105469;28;20035;-69
2023/01/15 05:09:15;;;;;;;34.28;5.45;;;5.80;99.90;;;;;;5093565;28;20156;-68
2023/01/15 05:11:43;;;;;;;23.27;4.00;;;5.80;99.90;;;;;;5097926;28;20039;-68
2023/01/15 05:14:08;;;;;;;16.83;4.20;;;5.80;99.90;;;;;;5102544;28;20039;-68
2023/01/15 05:16:34;;;;;;;22.55;4.90;;;5.80;99.90;;;;;;5092225;28;20055;-69
2023/01/15 05:19:02;;;;;;;21.55;5.38;;;5.80;99.90;;;;;;5095157;28;20550;-68
2023/01/15 05:21:31;;;;;;;14.88;3.88;;;5.80;99.90;;;;;;5095840;28;20721;-69
2023/01/15 05:23:59;;;;;;;11.10;4.22;;;5.80;99.90;;;;;;5097385;28;20119;-68
2023/01/15 05:26:25;;;;;;;19.52;3.85;;;5.70;99.90;;;;;;5098992;28;20047;-69
2023/01/15 05:28:56;;;;;;;15.85;4.28;;;5.70;99.90;;;;;;5092045;28;20131;-68
2023/01/15 05:31:22;;;;;;;9.90;4.03;;;5.60;99.90;;;;;;5088804;28;20107;-68
2023/01/15 05:33:48;;;;;;;12.65;4.40;;;5.60;99.90;;;;;;5089647;28;20708;-68
2023/01/15 05:36:26;;;;;;;15.80;4.82;;;5.60;99.90;;;;;;5096129;28;20052;-68
2023/01/15 05:38:54;;;;;;;18.45;4.53;;;5.70;99.90;;;;;;5096319;28;20070;-68
2023/01/15 05:44:08;;;;;;;17.02;4.80;;;5.60;99.90;;;;;;5084743;28;20055;-68
2023/01/15 05:46:35;;;;;;;10.43;3.60;;;5.60;99.90;;;;;;5091085;28;20047;-68
2023/01/15 05:49:04;;;;;;;14.03;3.40;;;5.60;99.90;;;;;;5085938;28;20509;-68
2023/01/15 05:51:30;;;;;;;23.25;4.55;;;5.50;99.90;;;;;;5092737;28;20054;-68
2023/01/15 05:53:57;;;;;;;17.40;3.88;;;5.50;99.90;;;;;;5089334;28;20052;-68
2023/01/15 05:56:23;;;;;;;15.18;3.83;;;5.50;99.90;;;;;;5087151;28;20123;-68
2023/01/15 05:58:49;;;;;;;25.92;5.15;;;5.50;99.90;;;;;;5089368;28;20048;-69
2023/01/15 06:01:15;;;;;;;17.23;4.55;;;5.50;99.90;;;;;;5088773;28;20051;-68
2023/01/15 06:03:40;;;;;;;13.38;3.88;;;5.50;99.90;;;;;;5092381;28;20082;-68
2023/01/15 06:06:11;;;;;;;12.95;3.28;;;5.50;99.90;;;;;;5098746;28;20055;-68
2023/01/15 06:08:37;;;;;;;15.45;3.65;;;5.50;99.90;;;;;;5098720;28;20500;-68
2023/01/15 06:11:02;;;;;;;21.15;4.07;;;5.40;99.90;;;;;;5098837;28;20075;-68
2023/01/15 06:13:28;;;;;;;18.20;5.03;;;5.40;99.90;;;;;;5099523;28;20101;-68
2023/01/15 06:15:54;;;;;;;13.30;4.80;;;5.40;99.90;;;;;;5099588;28;20385;-69
2023/01/15 06:18:22;;;;;;;20.58;4.32;;;5.40;99.90;;;;;;5092635;28;20048;-68
2023/01/15 06:20:48;;;;;;;9.95;2.97;;;5.40;99.90;;;;;;5087757;28;20057;-68
2023/01/15 06:23:15;;;;;;;14.23;4.45;;;5.40;99.90;;;;;;5089638;28;20047;-68
2023/01/15 06:25:41;;;;;;;21.57;3.67;;;5.40;99.90;;;;;;5089454;28;20092;-68
2023/01/15 06:28:07;;;;;;;13.95;3.92;;;5.40;99.90;;;;;;5092328;28;20397;-68
2023/01/15 06:30:33;;;;;;;12.68;3.28;;;5.30;99.90;;;;;;5095548;28;20039;-68
2023/01/15 06:32:59;;;;;;;10.98;3.45;;;5.40;99.90;;;;;;5086869;28;20055;-69
2023/01/15 06:35:26;;;;;;;16.27;4.88;;;5.40;99.90;;;;;;5093520;28;20537;-69
2023/01/15 06:37:52;;;;;;;13.43;3.35;;;5.30;99.90;;;;;;5102175;28;20079;-68
2023/01/15 06:40:18;;;;;;;12.32;4.15;;;5.30;99.90;;;;;;5089051;28;20056;-69
2023/01/15 06:48:26;;;;;;;12.88;3.42;;;5.20;99.90;;;;;;5102457;28;20044;-69
2023/01/15 06:50:53;;;;;;;9.95;3.33;;;5.30;99.90;;;;;;5090490;28;20031;-69
2023/01/15 06:53:19;;;;;;;20.58;4.00;;;5.30;99.90;;;;;;5084060;28;20048;-69
2023/01/15 06:55:46;;;;;;;17.13;3.47;;;5.20;99.90;;;;;;5091689;28;20093;-69
2023/01/15 06:58:11;;;;;;;11.88;3.10;;;5.20;99.90;;;;;;5086868;28;20048;-69
2023/01/15 07:00:37;;;;;;;20.73;4.65;;;5.20;99.90;;;;;;5097450;28;20732;-70
2023/01/15 07:03:04;;;;;;;17.42;3.90;;;5.20;99.90;;;;;;5094601;28;20620;-69
2023/01/15 07:05:29;;;;;;;11.30;2.92;;;5.10;99.90;;;;;;5103799;28;20048;-69
2023/01/15 07:07:57;;;;;;;19.08;5.22;;;5.10;99.90;;;;;;5100631;28;20570;-69
2023/01/15 07:10:23;;;;;;;13.07;3.75;;;5.10;99.90;;;;;;5090867;28;20043;-69
2023/01/15 07:12:49;;;;;;;12.88;4.40;;;5.10;99.90;;;;;;5118814;28;20050;-69
2023/01/15 07:15:14;;;;;;;13.18;3.70;;;5.00;99.90;;;;;;5104804;28;20416;-69
2023/01/15 07:17:40;;;;;;;17.75;3.45;;;5.00;99.90;;;;;;5104205;28;20051;-69
2023/01/15 07:20:06;;;;;;;24.70;4.97;;;5.00;99.90;;;;;;5105472;28;20035;-70
2023/01/15 07:22:32;;;;;;;19.63;4.47;;;5.00;99.90;;;;;;5102745;28;20035;-70
2023/01/15 07:24:58;;;;;;;15.18;4.80;;;4.90;99.90;;;;;;5104420;28;20059;-69
2023/01/15 07:27:23;;;;;;;17.98;3.67;;;5.00;99.90;;;;;;5120943;28;20052;-70
2023/01/15 07:29:50;;;;;;;22.70;3.97;;;4.90;99.90;;;;;;5102617;28;20049;-69
2023/01/15 07:32:17;;;;;;;22.67;4.85;;;4.90;99.90;;;;;;5105295;28;20139;-69
2023/01/15 07:34:44;;;;;;;10.55;3.47;;;4.90;99.90;;;;;;5103082;28;20056;-69
2023/01/15 07:37:10;;;;;;;15.48;3.72;;;4.90;99.90;;;;;;5106891;28;20119;-70
2023/01/15 07:39:41;;;;;;;12.90;3.22;;;4.90;99.90;;;;;;5097237;28;20107;-69
2023/01/15 07:50:23;;;;;;;4.22;1.73;;;4.90;99.90;;;;;;5106094;28;20083;-68
2023/01/15 07:52:49;;;;;;;16.85;3.53;;;4.80;99.90;;;;;;5107798;28;20113;-68
2023/01/15 07:55:15;;;;;;;10.43;3.47;;;4.80;99.90;;;;;;5093379;28;20032;-69
2023/01/15 07:57:42;;;;;;;11.02;3.17;;;4.80;99.90;;;;;;5087781;28;20047;-70
2023/01/15 08:00:14;;;;;;;18.83;4.47;;;4.80;99.90;;;;;;5094727;28;20050;-70
2023/01/15 08:02:41;;;;;;;11.32;3.42;;;4.90;99.90;;;;;;5093348;28;20036;-70
2023/01/15 08:05:08;;;;;;;20.05;4.47;;;4.80;99.90;;;;;;5118634;27;20054;-70
2023/01/15 08:07:38;;;;;;;9.68;3.83;;;4.80;99.90;;;;;;5094770;28;20078;-71
2023/01/15 08:10:04;;;;;;;13.80;3.50;;;4.80;99.90;;;;;;5095684;28;20127;-71
2023/01/15 08:15:15;;;;;;;9.90;3.00;;;4.80;99.90;;;;;;5098595;28;20066;-70
2023/01/15 08:17:46;;;;;;;11.93;3.05;;;4.80;99.90;;;;;;5105738;28;20055;-68
2023/01/15 08:20:18;;;;;;;6.28;2.83;;;4.80;99.90;;;;;;5092426;28;20115;-68
2023/01/15 08:22:44;;;;;;;10.55;3.25;;;4.80;99.90;;;;;;5095117;28;20039;-68
2023/01/15 08:25:13;;;;;;;15.68;3.63;;;4.70;99.90;;;;;;5098544;28;20047;-68
2023/01/15 08:27:39;;;;;;;17.27;4.70;;;4.80;99.90;;;;;;5099072;28;20032;-69
2023/01/15 08:30:08;;;;;;;12.43;3.20;;;4.80;99.90;;;;;;5103006;28;20039;-70
2023/01/15 08:32:34;;;;;;;12.20;4.18;;;4.80;99.90;;;;;;5096162;28;20057;-70
2023/01/15 08:35:00;;;;;;;7.78;2.45;;;4.80;99.90;;;;;;5096092;28;20056;-70
2023/01/15 08:37:25;;;;;;;22.58;3.90;;;4.90;99.90;;;;;;5096641;28;20040;-69
2023/01/15 08:39:52;;;;;;;17.15;4.30;;;4.90;99.90;;;;;;5101026;28;20047;-70
2023/01/15 08:42:19;;;;;;;9.27;3.30;;;4.90;99.90;;;;;;5092157;28;20125;-70
2023/01/15 08:44:45;;;;;;;12.40;3.10;;;4.90;99.90;;;;;;5102248;28;20055;-70
2023/01/15 08:47:11;;;;;;;15.18;4.88;;;4.90;99.90;;;;;;5098595;28;20047;-70
2023/01/15 08:49:37;;;;;;;8.10;3.30;;;4.90;99.90;;;;;;5107427;28;20045;-70
2023/01/15 08:52:03;;;;;;;11.68;3.45;;;4.90;99.90;;;;;;5098532;28;20052;-70
2023/01/15 08:54:29;;;;;;;16.42;3.58;;;4.90;99.90;;;;;;5094060;28;20406;-69
2023/01/15 08:56:54;;;;;;;12.80;3.75;;;5.00;99.90;;;;;;5095669;28;20085;-70
2023/01/15 08:59:20;;;;;;;10.57;3.50;;;5.00;99.90;;;;;;5099014;28;20475;-69
2023/01/15 09:01:46;;;;;;;9.77;3.65;;;5.10;99.90;;;;;;5101148;28;20092;-69
2023/01/15 09:04:14;;;;;;;13.75;3.50;;;5.10;99.90;;;;;;5097352;28;20100;-69
2023/01/15 09:06:40;;;;;;;14.02;3.88;;;5.20;99.90;;;;;;5098524;27;20085;-69
2023/01/15 09:09:06;;;;;;;15.55;3.47;;;5.20;99.90;;;;;;5105636;28;20058;-70
2023/01/15 09:11:31;;;;;;;17.55;3.03;;;5.20;99.90;;;;;;5107448;28;20036;-70
2023/01/15 09:13:57;;;;;;;15.63;2.90;;;5.30;99.90;;;;;;5099546;28;20048;-69
2023/01/15 09:16:25;;;;;;;9.02;2.92;;;5.30;99.90;;;;;;5114078;27;20066;-69
2023/01/15 09:18:51;;;;;;;17.08;3.70;;;5.30;99.90;;;;;;5095334;28;20051;-69
2023/01/15 09:21:16;;;;;;;13.68;2.83;;;5.20;99.90;;;;;;5095461;28;20044;-69
2023/01/15 09:23:42;;;;;;;19.52;3.65;;;5.10;99.90;;;;;;5096837;28;20044;-70
2023/01/15 09:26:27;;;;;;;8.15;3.15;;;4.90;99.90;;;;;;5084191;28;20109;-70
2023/01/15 09:28:53;;;;;;;20.35;5.50;;;4.80;99.90;;;;;;5095280;28;20633;-70
2023/01/15 09:31:19;;;;;;;36.00;17.75;;;4.70;99.90;;;;;;5098078;28;20101;-69
2023/01/15 09:33:45;;;;;;;31.92;16.88;;;4.70;99.90;;;;;;5096479;28;20051;-69
2023/01/15 09:36:16;;;;;;;10.57;7.60;;;4.60;99.90;;;;;;5102982;28;20051;-70
2023/01/15 09:38:41;;;;;;;8.63;3.90;;;4.60;99.90;;;;;;5096064;28;20491;-69
2023/01/15 09:42:04;;;;;;;9.10;3.65;;;4.60;99.90;;;;;;5103053;28;20047;-69
2023/01/15 09:44:05;;;;;;;4.72;1.50;;;4.50;99.90;;;;;;5099315;28;20043;-69
2023/01/15 09:46:49;;;;;;;10.10;2.10;;;4.50;99.90;;;;;;5104441;28;20668;-70
2023/01/15 09:49:45;;;;;;;6.20;2.28;;;4.50;99.90;;;;;;5096367;28;20127;-70
2023/01/15 09:52:41;;;;;;;6.07;1.92;;;4.50;99.90;;;;;;5091144;28;20405;-69
2023/01/15 09:55:18;;;;;;;4.40;2.30;;;4.50;99.90;;;;;;5063906;28;20094;-70
2023/01/15 09:57:48;;;;;;;10.52;3.55;;;4.60;99.90;;;;;;5086031;28;20036;-70
2023/01/15 10:00:20;;;;;;;9.35;2.13;;;4.70;99.90;;;;;;5090094;28;20048;-69
2023/01/15 10:03:09;;;;;;;10.55;2.58;;;4.70;99.90;;;;;;5102911;27;20397;-70
2023/01/15 10:05:43;;;;;;;19.75;3.30;;;4.80;99.90;;;;;;5094607;28;20080;-69
2023/01/15 10:08:19;;;;;;;8.50;2.72;;;4.90;99.90;;;;;;5103056;28;20051;-71
2023/01/15 10:10:47;;;;;;;6.07;2.80;;;4.90;99.90;;;;;;5089803;28;20552;-69
2023/01/15 10:13:42;;;;;;;7.65;3.03;;;4.90;99.90;;;;;;5100383;28;20044;-70
2023/01/15 10:16:09;;;;;;;16.50;3.25;;;4.90;99.90;;;;;;5095408;28;20458;-69
2023/01/15 10:18:36;;;;;;;14.77;3.63;;;4.90;99.90;;;;;;5091055;28;20551;-69
2023/01/15 10:21:28;;;;;;;10.95;4.00;;;4.90;99.90;;;;;;5099868;28;20051;-70
2023/01/15 10:24:09;;;;;;;15.57;3.15;;;4.90;99.90;;;;;;5099617;28;20116;-70
2023/01/15 10:26:43;;;;;;;11.50;2.75;;;5.00;99.90;;;;;;5104533;28;20495;-70
2023/01/15 10:29:20;;;;;;;10.32;3.22;;;5.00;99.90;;;;;;5100237;28;20032;-70
2023/01/15 10:32:23;;;;;;;9.07;3.40;;;5.10;99.90;;;;;;5090451;28;20036;-70
2023/01/15 10:34:59;;;;;;;16.73;3.33;;;5.20;99.90;;;;;;5095413;28;20082;-70
2023/01/15 10:37:34;;;;;;;11.75;4.05;;;5.30;99.90;;;;;;5088569;28;20052;-71
2023/01/15 10:40:23;;;;;;;23.80;3.75;;;5.30;99.90;;;;;;5094236;28;20043;-70
2023/01/15 10:43:01;;;;;;;13.60;3.33;;;5.30;99.90;;;;;;5092725;28;20057;-70
2023/01/15 10:45:34;;;;;;;;;;;5.30;99.90;;;;;;5098991;28;20050;-69
2023/01/15 10:48:12;;;;;;;9.00;2.45;;;5.20;99.90;;;;;;5100952;28;19959;-70
2023/01/15 10:50:38;;;;;;;6.30;3.33;;;5.10;99.90;;;;;;5100211;28;20119;-71
2023/01/15 10:53:20;;;;;;;9.13;3.00;;;5.10;99.90;;;;;;5102088;28;20126;-70
2023/01/15 10:55:53;;;;;;;12.15;4.03;;;5.10;99.90;;;;;;5083091;28;20047;-70
2023/01/15 10:58:42;;;;;;;14.32;3.67;;;5.00;99.90;;;;;;5099128;28;20044;-69
2023/01/15 11:01:14;;;;;;;11.98;4.03;;;5.10;99.90;;;;;;5095542;28;20058;-69
2023/01/15 11:03:42;;;;;;;17.38;3.80;;;5.10;99.90;;;;;;5095565;28;20044;-69
2023/01/15 11:06:20;;;;;;;13.23;3.80;;;5.10;99.90;;;;;;5093745;28;20051;-68
2023/01/15 11:08:52;;;;;;;21.17;3.80;;;5.20;99.90;;;;;;5095778;28;20051;-69
2023/01/15 11:19:35;;;;;;;8.00;3.53;;;5.20;99.90;;;;;;5106744;28;20145;-69
2023/01/15 11:19:41;;;;;;;17.67;4.63;;;5.50;99.90;;;;;;5089522;28;20417;-69
2023/01/15 11:22:13;;;;;;;19.55;4.15;;;5.50;99.90;;;;;;5105822;28;20123;-70
2023/01/15 11:24:57;;;;;;;22.88;4.32;;;5.50;99.90;;;;;;5098022;28;20117;-69
2023/01/15 11:27:31;;;;;;;18.77;4.00;;;5.70;99.90;;;;;;5107981;28;20491;-69
2023/01/15 11:30:02;;;;;;;14.45;4.05;;;5.80;99.90;;;;;;5104088;28;20036;-70
2023/01/15 11:32:30;;;;;;;13.43;4.10;;;5.90;99.90;;;;;;5097060;28;20044;-69
2023/01/15 11:34:58;;;;;;;;;;;6.00;99.90;;;;;;5105737;28;20055;-70
2023/01/15 11:37:24;;;;;;;15.32;3.38;;;6.10;99.90;;;;;;5104592;28;19926;-69
2023/01/15 11:40:08;;;;;;;18.80;4.35;;;6.10;99.90;;;;;;5103305;28;20082;-69
2023/01/15 11:51:16;;;;;;;12.70;4.22;;;6.40;99.90;;;;;;5103570;28;20049;-69
2023/01/15 11:53:58;;;;;;;10.43;3.50;;;6.40;99.90;;;;;;5101412;28;20073;-70
2023/01/15 11:56:27;;;;;;;17.13;4.03;;;6.50;99.90;;;;;;5105224;28;20031;-70
2023/01/15 11:58:56;;;;;;;17.63;3.63;;;6.50;99.90;;;;;;5098768;28;20508;-69
2023/01/15 12:01:32;;;;;;;18.17;3.55;;;6.40;99.90;;;;;;5106149;28;20039;-69
2023/01/15 12:04:00;;;;;;;15.57;4.07;;;6.50;99.90;;;;;;5103628;28;20087;-70
2023/01/15 12:06:29;;;;;;;16.95;3.67;;;6.50;99.90;;;;;;5104894;28;20058;-70
2023/01/15 12:09:14;;;;;;;;;;;6.60;99.90;;;;;;5108999;28;20047;-70
2023/01/15 12:12:15;;;;;;;11.98;3.65;;;6.60;99.90;;;;;;5091785;28;19924;-70
2023/01/15 12:14:59;;;;;;;16.15;5.47;;;6.60;99.90;;;;;;5098758;28;20048;-70
2023/01/15 12:18:15;;;;;;;11.32;3.25;;;6.50;99.90;;;;;;5100238;28;20048;-70
2023/01/15 12:21:04;;;;;;;11.50;4.57;;;6.50;99.90;;;;;;5089904;28;20556;-70
2023/01/15 12:23:53;;;;;;;14.90;3.97;;;6.60;99.90;;;;;;5095759;28;20048;-69
2023/01/15 12:26:32;;;;;;;13.25;4.70;;;6.70;99.90;;;;;;5103859;28;20059;-70
2023/01/15 12:29:26;;;;;;;11.30;3.90;;;6.70;99.90;;;;;;5097299;28;20047;-70
2023/01/15 12:32:03;;;;;;;22.45;4.50;;;6.70;99.90;;;;;;5091706;28;20084;-70
2023/01/15 12:35:00;;;;;;;12.77;4.13;;;6.70;99.90;;;;;;5094560;28;20052;-71
2023/01/15 12:37:30;;;;;;;15.02;4.60;;;6.70;99.90;;;;;;5107222;28;20536;-72
2023/01/15 12:40:13;;;;;;;13.68;4.03;;;6.80;99.90;;;;;;5076918;28;20089;-70
2023/01/15 12:45:30;;;;;;;11.20;3.45;;;6.70;99.90;;;;;;5103416;28;20051;-70
2023/01/15 12:48:17;;;;;;;18.38;3.92;;;6.70;99.90;;;;;;5095775;28;20058;-69
2023/01/15 12:50:51;;;;;;;17.40;4.00;;;6.70;99.90;;;;;;5099235;28;20036;-69
2023/01/15 12:53:26;;;;;;;6.57;3.10;;;6.80;99.90;;;;;;5101487;28;20059;-70
2023/01/15 12:56:00;;;;;;;9.57;3.05;;;6.90;99.90;;;;;;5102401;28;20048;-70
2023/01/15 12:58:45;;;;;;;14.57;3.63;;;7.00;99.90;;;;;;5097237;28;20039;-70
2023/01/15 13:01:46;;;;;;;6.32;2.90;;;7.00;99.90;;;;;;5104985;28;20084;-69
2023/01/15 13:04:42;;;;;;;11.23;3.90;;;7.00;99.90;;;;;;5106312;28;20051;-69
2023/01/15 13:07:28;;;;;;;18.17;4.05;;;7.00;99.90;;;;;;5071405;28;20056;-69
2023/01/15 13:10:14;;;;;;;18.08;3.60;;;7.00;99.90;;;;;;5095796;28;20169;-70
2023/01/15 13:12:42;;;;;;;13.77;3.67;;;7.00;99.90;;;;;;5094451;28;20051;-69
2023/01/15 13:15:13;;;;;;;10.82;3.28;;;7.00;99.90;;;;;;5117021;27;20044;-69
2023/01/15 13:17:43;;;;;;;14.40;3.70;;;7.00;99.90;;;;;;5100827;28;20048;-69
2023/01/15 13:20:23;;;;;;;12.88;3.15;;;7.00;99.90;;;;;;5096361;28;20096;-69
2023/01/15 13:23:03;;;;;;;10.57;2.67;;;7.00;99.90;;;;;;5095054;28;20074;-70
2023/01/15 13:26:00;;;;;;;17.15;2.88;;;7.00;99.90;;;;;;5094977;28;20039;-69
2023/01/15 13:28:29;;;;;;;6.78;2.95;;;6.90;99.90;;;;;;5096119;28;20081;-69
2023/01/15 13:31:06;;;;;;;6.63;3.05;;;6.90;99.90;;;;;;5096518;28;20583;-69
2023/01/15 13:33:53;;;;;;;18.63;3.63;;;6.90;99.90;;;;;;5095510;28;20047;-67
2023/01/15 13:36:29;;;;;;;11.57;3.55;;;7.00;99.90;;;;;;5106613;28;20044;-67
2023/01/15 13:39:01;;;;;;;17.98;4.05;;;7.00;99.90;;;;;;5104151;28;20527;-67
2023/01/15 13:44:22;;;;;;;9.80;2.80;;;7.10;99.90;;;;;;5092575;28;20051;-67
2023/01/15 13:47:04;;;;;;;15.05;3.63;;;7.10;99.90;;;;;;5104169;28;20039;-68
2023/01/15 13:49:55;;;;;;;16.67;3.65;;;7.10;99.90;;;;;;5105329;28;20102;-68
2023/01/15 13:52:32;;;;;;;13.05;3.78;;;7.20;99.90;;;;;;5097147;28;20081;-68
2023/01/15 13:55:07;;;;;;;13.65;3.88;;;7.10;99.90;;;;;;5101380;28;20051;-67
2023/01/15 13:57:36;;;;;;;13.20;4.38;;;7.00;99.90;;;;;;5099798;28;20071;-67
2023/01/15 14:00:07;;;;;;;19.30;4.32;;;6.90;99.90;;;;;;5096727;28;20510;-68